Volney, New York
Current Conditions -  °F | °C
As of 10:54 AM on Saturday 25 Oct 2014 (Local Time) from KFZY Reporting Station
Few Clouds Few Clouds  
Wind Chill: 56°   Ceiling: Unl
Heat Index: 56°   Visibility: 8mi
Dew Point: 47°   Wind: 10mph
Humidity: 72%   Direction: 220°SW
Pressure: 29.75"   Gusts: NA
Location:  43.3608°N, 76.3536°W
Report Text: KFZY 251454Z AUTO 22009KT 8SM FEW041 FEW055 13/08 A2975 RMK AO2 SLP076 T01330083 58023
Loading
Personal Weather Stations






























Interactive Weather Map
Tropical Storm Tracking
New forecast layout! Learn more

10-Day Weather Forecast

Advertisements
Track Severe Weather on mobile